»·PEaware :: C-GCEO KLAX-KSAN

C-GCEO :: KLAX-KSAN

FLIGHT INFORMATION

Flight Status: Arrived
Operator: Privately registered:
Canada
More flights under this callsign
Pilot: Dave A. (22301)
Aircraft: CESSNA 172 SKYHAWK
(C172)
More flights by this aircraft type
Origin: KLAX Los Angeles Intl
United States
Destination: KSAN San Diego Intl-Lindbergh
United States
More flights between these airports :: More routes between these airports
Route: +
File this flight plan on PilotEdge
Remarks: CAT11
Altitude:
(Current/Filed)
7,500ft
Speed:
(Current/Filed)
0kts
Departed: 04-Dec-18 09:15 AM
Arrived: 04-Dec-18 10:12 AM
Distance/Time
Traveled:
95nm/0:57
Distance/Time
To Go:
Arrived

Flight Plot

Page will automatically refresh every two minutes.


Map Options




Map Legend


Flown Route
Filed Route
Departure Airport
Arrival Airport
Navaid (VOR, NDB)
Fix

Horizontal Profiles

Position Reports

Time Latitude Longitude Heading Altitude Ground
Speed
04-Dec-18 09:03 33.932910 -118.399792 78 112ft 0kts
04-Dec-18 09:04 33.932910 -118.399792 78 112ft 0kts
04-Dec-18 09:05 33.932910 -118.399792 78 112ft 0kts
04-Dec-18 09:06 33.932910 -118.399792 78 112ft 0kts
04-Dec-18 09:07 33.932910 -118.399792 78 112ft 0kts
04-Dec-18 09:08 33.934095 -118.398236 14 109ft 7kts
04-Dec-18 09:08 33.934777 -118.395901 82 106ft 10kts
04-Dec-18 09:10 33.935196 -118.391945 80 102ft 12kts
04-Dec-18 09:11 33.935625 -118.387413 78 99ft 14kts
04-Dec-18 09:11 33.935977 -118.384209 86 98ft 9kts
04-Dec-18 09:13 33.936550 -118.382764 355 96ft 0kts
04-Dec-18 09:13 33.936866 -118.382802 354 96ft 9kts
04-Dec-18 09:15 33.935680 -118.405078 266 873ft 78kts
04-Dec-18 09:15 33.933015 -118.427777 267 1707ft 85kts
04-Dec-18 09:17 33.931159 -118.463042 268 2485ft 105kts
04-Dec-18 09:17 33.925075 -118.490145 208 2655ft 102kts
04-Dec-18 09:18 33.900471 -118.479069 147 2902ft 105kts
04-Dec-18 09:19 33.874041 -118.459935 148 2899ft 113kts
04-Dec-18 09:20 33.847126 -118.440287 148 2899ft 113kts
04-Dec-18 09:21 33.820027 -118.420407 148 2899ft 113kts
04-Dec-18 09:22 33.794009 -118.401206 147 3487ft 108kts
04-Dec-18 09:23 33.765740 -118.380325 148 3519ft 114kts
04-Dec-18 09:24 33.746629 -118.352578 126 3520ft 107kts
04-Dec-18 09:25 33.727173 -118.325398 132 3520ft 107kts
04-Dec-18 09:26 33.706242 -118.299755 134 3519ft 107kts
04-Dec-18 09:27 33.684794 -118.274554 135 3518ft 108kts
04-Dec-18 09:28 33.662527 -118.248719 135 3518ft 113kts
04-Dec-18 09:29 33.645674 -118.217517 111 3516ft 113kts
04-Dec-18 09:30 33.633369 -118.182886 111 3665ft 112kts
04-Dec-18 09:31 33.613223 -118.154611 139 4254ft 114kts
04-Dec-18 09:32 33.588858 -118.128820 138 4759ft 118kts
04-Dec-18 09:33 33.564604 -118.102324 138 5254ft 118kts
04-Dec-18 09:34 33.539628 -118.074881 139 5470ft 118kts
04-Dec-18 09:35 33.516118 -118.049038 138 5471ft 117kts
04-Dec-18 09:36 33.491849 -118.022266 138 5470ft 118kts
04-Dec-18 09:37 33.468091 -117.996063 137 5470ft 114kts
04-Dec-18 09:38 33.450366 -117.967094 79 5470ft 110kts
04-Dec-18 09:39 33.453466 -117.930954 113 5468ft 113kts
04-Dec-18 09:40 33.438223 -117.897928 117 5471ft 113kts
04-Dec-18 09:41 33.423677 -117.864575 115 5471ft 113kts
04-Dec-18 09:42 33.416484 -117.828898 90 5473ft 118kts
04-Dec-18 09:43 33.414064 -117.786081 90 5471ft 132kts
04-Dec-18 09:44 33.412454 -117.743307 90 5469ft 122kts
04-Dec-18 09:45 33.392707 -117.711973 134 5486ft 130kts
04-Dec-18 09:46 33.368436 -117.691383 139 5340ft 136kts
04-Dec-18 09:47 33.340497 -117.663157 136 5333ft 129kts
04-Dec-18 09:48 33.314217 -117.634008 136 5333ft 128kts
04-Dec-18 09:49 33.287962 -117.604925 136 5333ft 128kts
04-Dec-18 09:50 33.261849 -117.576059 136 5333ft 128kts
04-Dec-18 09:51 33.235537 -117.547042 136 5333ft 128kts
04-Dec-18 09:52 33.209240 -117.518106 136 5333ft 128kts
04-Dec-18 09:53 33.180570 -117.493097 153 5333ft 128kts
04-Dec-18 09:54 33.149000 -117.473028 148 5333ft 128kts
04-Dec-18 09:55 33.118091 -117.451403 149 5333ft 128kts
04-Dec-18 09:56 33.087018 -117.430197 145 5333ft 128kts
04-Dec-18 09:57 33.074429 -117.388156 105 4875ft 140kts
04-Dec-18 09:58 33.063538 -117.344529 106 4387ft 141kts
04-Dec-18 09:59 33.044598 -117.303928 123 3876ft 141kts
04-Dec-18 10:00 33.009207 -117.293478 182 3352ft 141kts
04-Dec-18 10:01 32.970635 -117.288530 163 2856ft 141kts
04-Dec-18 10:02 32.935616 -117.274704 160 2887ft 120kts
04-Dec-18 10:03 32.905098 -117.259686 160 3176ft 127kts
04-Dec-18 10:04 32.872326 -117.246461 161 2867ft 119kts
04-Dec-18 10:05 32.841774 -117.234228 161 2470ft 116kts
04-Dec-18 10:06 32.810990 -117.223566 187 2063ft 116kts
04-Dec-18 10:07 32.779116 -117.229959 189 1664ft 116kts
04-Dec-18 10:08 32.758182 -117.207586 127 1094ft 90kts
04-Dec-18 10:09 32.744346 -117.189121 132 510ft 70kts
04-Dec-18 10:10 32.731768 -117.182106 285 71ft 58kts
04-Dec-18 10:11 32.732407 -117.188698 231 15ft 0kts
04-Dec-18 10:12 32.731391 -117.190411 131 14ft 5kts

Navigation Log

Ident Type
Flight plan parsing failed, navigation log unavailable